sensor_id;sensor_type;location;lat;lon;timestamp;temperature;humidity
13375;DHT22;6756;51.354;15.754;2023-10-09T00:00:51;7.70;99.90
13375;DHT22;6756;51.354;15.754;2023-10-09T00:04:56;7.70;99.90
13375;DHT22;6756;51.354;15.754;2023-10-09T00:08:57;7.70;99.90
13375;DHT22;6756;51.354;15.754;2023-10-09T00:12:59;7.70;99.90
13375;DHT22;6756;51.354;15.754;2023-10-09T00:17:00;7.80;1.00
13375;DHT22;6756;51.354;15.754;2023-10-09T00:21:19;7.80;1.00
13375;DHT22;6756;51.354;15.754;2023-10-09T00:25:23;7.80;1.00
13375;DHT22;6756;51.354;15.754;2023-10-09T00:29:31;7.80;1.00
13375;DHT22;6756;51.354;15.754;2023-10-09T00:33:35;7.90;1.00
13375;DHT22;6756;51.354;15.754;2023-10-09T00:37:36;7.90;1.00
13375;DHT22;6756;51.354;15.754;2023-10-09T00:41:38;7.80;1.00
13375;DHT22;6756;51.354;15.754;2023-10-09T00:45:43;7.80;1.00
13375;DHT22;6756;51.354;15.754;2023-10-09T00:49:45;7.80;1.00
13375;DHT22;6756;51.354;15.754;2023-10-09T00:53:51;7.80;1.00
13375;DHT22;6756;51.354;15.754;2023-10-09T00:57:55;7.90;32.10
13375;DHT22;6756;51.354;15.754;2023-10-09T01:02:06;7.80;73.10
13375;DHT22;6756;51.354;15.754;2023-10-09T01:06:07;7.90;85.70
13375;DHT22;6756;51.354;15.754;2023-10-09T01:10:17;7.90;71.80
13375;DHT22;6756;51.354;15.754;2023-10-09T01:14:19;7.90;16.10
13375;DHT22;6756;51.354;15.754;2023-10-09T01:18:26;7.90;1.00
13375;DHT22;6756;51.354;15.754;2023-10-09T01:22:36;7.90;1.00
13375;DHT22;6756;51.354;15.754;2023-10-09T01:26:45;8.00;1.00
13375;DHT22;6756;51.354;15.754;2023-10-09T01:30:50;8.00;1.00
13375;DHT22;6756;51.354;15.754;2023-10-09T01:34:52;8.00;40.00
13375;DHT22;6756;51.354;15.754;2023-10-09T01:38:54;8.00;99.90
13375;DHT22;6756;51.354;15.754;2023-10-09T01:42:55;8.00;99.90
13375;DHT22;6756;51.354;15.754;2023-10-09T01:46:57;8.00;99.90
13375;DHT22;6756;51.354;15.754;2023-10-09T01:50:58;8.00;99.90
13375;DHT22;6756;51.354;15.754;2023-10-09T01:55:00;8.00;99.90
13375;DHT22;6756;51.354;15.754;2023-10-09T01:59:21;8.00;99.90
13375;DHT22;6756;51.354;15.754;2023-10-09T02:03:23;8.00;99.90
13375;DHT22;6756;51.354;15.754;2023-10-09T02:07:25;8.00;99.90
13375;DHT22;6756;51.354;15.754;2023-10-09T02:11:30;8.00;1.00
13375;DHT22;6756;51.354;15.754;2023-10-09T02:15:39;8.00;1.00
13375;DHT22;6756;51.354;15.754;2023-10-09T02:19:43;8.00;92.80
13375;DHT22;6756;51.354;15.754;2023-10-09T02:23:48;7.90;99.90
13375;DHT22;6756;51.354;15.754;2023-10-09T02:27:53;7.90;1.00
13375;DHT22;6756;51.354;15.754;2023-10-09T02:31:54;7.90;1.00
13375;DHT22;6756;51.354;15.754;2023-10-09T02:36:03;7.90;1.00
13375;DHT22;6756;51.354;15.754;2023-10-09T02:40:06;7.90;1.00
13375;DHT22;6756;51.354;15.754;2023-10-09T02:44:09;7.90;99.90
13375;DHT22;6756;51.354;15.754;2023-10-09T02:48:13;8.00;99.90
13375;DHT22;6756;51.354;15.754;2023-10-09T02:52:14;8.00;99.90
13375;DHT22;6756;51.354;15.754;2023-10-09T02:56:19;8.00;99.90
13375;DHT22;6756;51.354;15.754;2023-10-09T03:00:25;8.00;1.00
13375;DHT22;6756;51.354;15.754;2023-10-09T03:04:29;8.00;99.90
13375;DHT22;6756;51.354;15.754;2023-10-09T03:08:30;7.90;1.00
13375;DHT22;6756;51.354;15.754;2023-10-09T03:12:31;7.90;99.90
13375;DHT22;6756;51.354;15.754;2023-10-09T03:16:33;7.90;99.90
13375;DHT22;6756;51.354;15.754;2023-10-09T03:20:34;7.90;1.00
13375;DHT22;6756;51.354;15.754;2023-10-09T03:24:35;7.90;1.00
13375;DHT22;6756;51.354;15.754;2023-10-09T03:28:35;7.90;1.00
13375;DHT22;6756;51.354;15.754;2023-10-09T03:32:36;7.80;99.90
13375;DHT22;6756;51.354;15.754;2023-10-09T03:36:37;7.80;99.90
13375;DHT22;6756;51.354;15.754;2023-10-09T03:40:43;7.80;99.90
13375;DHT22;6756;51.354;15.754;2023-10-09T03:44:44;7.70;99.90
13375;DHT22;6756;51.354;15.754;2023-10-09T03:48:49;7.70;99.90
13375;DHT22;6756;51.354;15.754;2023-10-09T03:52:50;7.70;99.90
13375;DHT22;6756;51.354;15.754;2023-10-09T03:56:51;7.70;99.90
13375;DHT22;6756;51.354;15.754;2023-10-09T04:00:52;7.70;99.90
13375;DHT22;6756;51.354;15.754;2023-10-09T04:04:52;7.70;99.90
13375;DHT22;6756;51.354;15.754;2023-10-09T04:08:53;7.70;99.90
13375;DHT22;6756;51.354;15.754;2023-10-09T04:12:55;7.70;99.90
13375;DHT22;6756;51.354;15.754;2023-10-09T04:16:59;7.80;99.90
13375;DHT22;6756;51.354;15.754;2023-10-09T04:21:26;7.80;99.90
13375;DHT22;6756;51.354;15.754;2023-10-09T04:25:37;7.80;99.90
13375;DHT22;6756;51.354;15.754;2023-10-09T04:29:45;7.90;99.90
13375;DHT22;6756;51.354;15.754;2023-10-09T04:33:51;7.90;99.90
13375;DHT22;6756;51.354;15.754;2023-10-09T04:38:46;7.90;99.90
13375;DHT22;6756;51.354;15.754;2023-10-09T04:43:22;7.90;99.90
13375;DHT22;6756;51.354;15.754;2023-10-09T04:47:23;7.90;99.90
13375;DHT22;6756;51.354;15.754;2023-10-09T04:51:26;7.90;99.90
13375;DHT22;6756;51.354;15.754;2023-10-09T04:55:39;7.90;99.90
13375;DHT22;6756;51.354;15.754;2023-10-09T04:59:50;7.80;99.90
13375;DHT22;6756;51.354;15.754;2023-10-09T05:03:58;7.80;99.90
13375;DHT22;6756;51.354;15.754;2023-10-09T05:08:29;7.80;99.90
13375;DHT22;6756;51.354;15.754;2023-10-09T05:12:33;7.80;99.90
13375;DHT22;6756;51.354;15.754;2023-10-09T05:16:34;7.80;99.90
13375;DHT22;6756;51.354;15.754;2023-10-09T05:20:38;7.80;99.90
13375;DHT22;6756;51.354;15.754;2023-10-09T05:25:06;7.80;99.90
13375;DHT22;6756;51.354;15.754;2023-10-09T05:29:17;7.80;99.90
13375;DHT22;6756;51.354;15.754;2023-10-09T05:33:34;7.80;99.90
13375;DHT22;6756;51.354;15.754;2023-10-09T05:37:37;7.80;99.90
13375;DHT22;6756;51.354;15.754;2023-10-09T05:41:44;7.80;99.90
13375;DHT22;6756;51.354;15.754;2023-10-09T05:46:08;7.90;99.90
13375;DHT22;6756;51.354;15.754;2023-10-09T05:50:15;7.90;99.90
13375;DHT22;6756;51.354;15.754;2023-10-09T05:54:15;8.00;99.90
13375;DHT22;6756;51.354;15.754;2023-10-09T05:58:45;8.00;99.90
13375;DHT22;6756;51.354;15.754;2023-10-09T06:03:05;8.00;99.90
13375;DHT22;6756;51.354;15.754;2023-10-09T06:07:21;8.00;99.90
13375;DHT22;6756;51.354;15.754;2023-10-09T06:11:42;8.00;99.90
13375;DHT22;6756;51.354;15.754;2023-10-09T06:16:12;8.00;99.90
13375;DHT22;6756;51.354;15.754;2023-10-09T06:20:32;8.00;99.90
13375;DHT22;6756;51.354;15.754;2023-10-09T06:25:01;8.00;99.90
13375;DHT22;6756;51.354;15.754;2023-10-09T06:29:11;8.00;99.90
13375;DHT22;6756;51.354;15.754;2023-10-09T06:33:15;8.10;99.90
13375;DHT22;6756;51.354;15.754;2023-10-09T06:37:29;8.10;99.90
13375;DHT22;6756;51.354;15.754;2023-10-09T06:41:30;8.10;99.90
13375;DHT22;6756;51.354;15.754;2023-10-09T06:45:48;8.10;99.90
13375;DHT22;6756;51.354;15.754;2023-10-09T06:49:55;8.20;99.90
13375;DHT22;6756;51.354;15.754;2023-10-09T06:54:28;8.30;99.90
13375;DHT22;6756;51.354;15.754;2023-10-09T06:58:37;8.30;99.90
13375;DHT22;6756;51.354;15.754;2023-10-09T07:02:48;8.30;99.90
13375;DHT22;6756;51.354;15.754;2023-10-09T07:06:49;8.40;99.90
13375;DHT22;6756;51.354;15.754;2023-10-09T07:10:51;8.40;99.90
13375;DHT22;6756;51.354;15.754;2023-10-09T07:15:13;8.50;99.90
13375;DHT22;6756;51.354;15.754;2023-10-09T07:19:43;8.50;99.90
13375;DHT22;6756;51.354;15.754;2023-10-09T07:23:44;8.50;99.90
13375;DHT22;6756;51.354;15.754;2023-10-09T07:27:49;8.40;99.90
13375;DHT22;6756;51.354;15.754;2023-10-09T07:31:52;8.40;99.90
13375;DHT22;6756;51.354;15.754;2023-10-09T07:36:17;8.30;99.90
13375;DHT22;6756;51.354;15.754;2023-10-09T07:40:32;8.30;99.90
13375;DHT22;6756;51.354;15.754;2023-10-09T07:44:56;8.30;99.90
13375;DHT22;6756;51.354;15.754;2023-10-09T07:49:04;8.40;99.90
13375;DHT22;6756;51.354;15.754;2023-10-09T07:53:12;8.50;99.90
13375;DHT22;6756;51.354;15.754;2023-10-09T07:57:21;8.60;99.90
13375;DHT22;6756;51.354;15.754;2023-10-09T08:01:29;8.70;99.90
13375;DHT22;6756;51.354;15.754;2023-10-09T08:05:36;8.70;99.90
13375;DHT22;6756;51.354;15.754;2023-10-09T08:09:45;8.80;99.90
13375;DHT22;6756;51.354;15.754;2023-10-09T08:13:49;8.90;99.90
13375;DHT22;6756;51.354;15.754;2023-10-09T08:17:57;9.10;99.90
13375;DHT22;6756;51.354;15.754;2023-10-09T08:22:10;9.30;99.90
13375;DHT22;6756;51.354;15.754;2023-10-09T08:26:22;9.40;99.90
13375;DHT22;6756;51.354;15.754;2023-10-09T08:30:29;9.40;55.40
13375;DHT22;6756;51.354;15.754;2023-10-09T08:34:41;9.30;19.60
13375;DHT22;6756;51.354;15.754;2023-10-09T08:38:50;9.20;1.00
13375;DHT22;6756;51.354;15.754;2023-10-09T08:42:53;9.10;48.20
13375;DHT22;6756;51.354;15.754;2023-10-09T08:46:58;9.10;34.90
13375;DHT22;6756;51.354;15.754;2023-10-09T08:51:00;9.20;85.70
13375;DHT22;6756;51.354;15.754;2023-10-09T08:55:08;9.20;75.70
13375;DHT22;6756;51.354;15.754;2023-10-09T08:59:08;9.20;63.60
13375;DHT22;6756;51.354;15.754;2023-10-09T09:03:15;9.20;1.00
13375;DHT22;6756;51.354;15.754;2023-10-09T09:07:27;9.40;1.00
13375;DHT22;6756;51.354;15.754;2023-10-09T09:11:43;9.50;99.90
13375;DHT22;6756;51.354;15.754;2023-10-09T09:15:50;9.60;99.90
13375;DHT22;6756;51.354;15.754;2023-10-09T09:19:58;9.60;99.90
13375;DHT22;6756;51.354;15.754;2023-10-09T09:24:02;9.50;99.90
13375;DHT22;6756;51.354;15.754;2023-10-09T09:28:06;9.50;99.90
13375;DHT22;6756;51.354;15.754;2023-10-09T09:32:14;9.70;99.90
13375;DHT22;6756;51.354;15.754;2023-10-09T09:36:20;9.90;99.90
13375;DHT22;6756;51.354;15.754;2023-10-09T09:40:26;10.10;86.50
13375;DHT22;6756;51.354;15.754;2023-10-09T09:44:42;10.10;8.50
13375;DHT22;6756;51.354;15.754;2023-10-09T09:48:45;10.10;19.40
13375;DHT22;6756;51.354;15.754;2023-10-09T09:52:50;10.00;1.00
13375;DHT22;6756;51.354;15.754;2023-10-09T09:56:57;10.00;1.00
13375;DHT22;6756;51.354;15.754;2023-10-09T10:01:03;10.00;1.00
13375;DHT22;6756;51.354;15.754;2023-10-09T10:05:28;10.00;1.00
13375;DHT22;6756;51.354;15.754;2023-10-09T10:09:41;10.10;1.00
13375;DHT22;6756;51.354;15.754;2023-10-09T10:22:23;10.20;1.00
13375;DHT22;6756;51.354;15.754;2023-10-09T10:26:28;10.30;1.00
13375;DHT22;6756;51.354;15.754;2023-10-09T10:30:32;10.30;1.00
13375;DHT22;6756;51.354;15.754;2023-10-09T10:39:06;10.50;99.90
13375;DHT22;6756;51.354;15.754;2023-10-09T10:43:18;10.60;99.90
13375;DHT22;6756;51.354;15.754;2023-10-09T10:47:41;10.50;99.90
13375;DHT22;6756;51.354;15.754;2023-10-09T10:51:49;10.50;99.90
13375;DHT22;6756;51.354;15.754;2023-10-09T10:56:01;10.60;99.90
13375;DHT22;6756;51.354;15.754;2023-10-09T11:00:14;10.60;99.90
13375;DHT22;6756;51.354;15.754;2023-10-09T11:04:35;10.50;99.90
13375;DHT22;6756;51.354;15.754;2023-10-09T11:08:46;10.30;99.90
13375;DHT22;6756;51.354;15.754;2023-10-09T11:12:57;10.30;1.00
13375;DHT22;6756;51.354;15.754;2023-10-09T11:17:16;10.20;1.00
13375;DHT22;6756;51.354;15.754;2023-10-09T11:21:25;10.20;1.00
13375;DHT22;6756;51.354;15.754;2023-10-09T11:25:32;10.20;1.00
13375;DHT22;6756;51.354;15.754;2023-10-09T11:29:35;10.30;1.00
13375;DHT22;6756;51.354;15.754;2023-10-09T11:33:47;10.30;10.20
13375;DHT22;6756;51.354;15.754;2023-10-09T11:37:56;10.40;1.00
13375;DHT22;6756;51.354;15.754;2023-10-09T11:42:04;10.40;1.00
13375;DHT22;6756;51.354;15.754;2023-10-09T11:46:11;10.50;1.00
13375;DHT22;6756;51.354;15.754;2023-10-09T11:50:12;10.50;1.00
13375;DHT22;6756;51.354;15.754;2023-10-09T11:54:32;10.60;1.00
13375;DHT22;6756;51.354;15.754;2023-10-09T11:58:33;10.60;1.00
13375;DHT22;6756;51.354;15.754;2023-10-09T12:02:34;10.70;1.00
13375;DHT22;6756;51.354;15.754;2023-10-09T12:06:44;10.80;1.00
13375;DHT22;6756;51.354;15.754;2023-10-09T12:10:45;11.00;1.00
13375;DHT22;6756;51.354;15.754;2023-10-09T12:14:48;11.10;99.90
13375;DHT22;6756;51.354;15.754;2023-10-09T12:18:58;11.10;99.90
13375;DHT22;6756;51.354;15.754;2023-10-09T12:23:01;11.00;99.90
13375;DHT22;6756;51.354;15.754;2023-10-09T12:27:05;11.00;99.90
13375;DHT22;6756;51.354;15.754;2023-10-09T12:31:16;11.20;99.90
13375;DHT22;6756;51.354;15.754;2023-10-09T12:35:20;11.10;99.90
13375;DHT22;6756;51.354;15.754;2023-10-09T12:39:22;11.20;99.90
13375;DHT22;6756;51.354;15.754;2023-10-09T12:43:22;11.40;99.90
13375;DHT22;6756;51.354;15.754;2023-10-09T12:47:24;11.60;99.90
13375;DHT22;6756;51.354;15.754;2023-10-09T12:51:26;11.70;99.90
13375;DHT22;6756;51.354;15.754;2023-10-09T12:55:34;11.70;99.90
13375;DHT22;6756;51.354;15.754;2023-10-09T12:59:36;11.70;99.90
13375;DHT22;6756;51.354;15.754;2023-10-09T13:03:37;11.70;99.90
13375;DHT22;6756;51.354;15.754;2023-10-09T13:07:41;11.80;99.90
13375;DHT22;6756;51.354;15.754;2023-10-09T13:11:43;11.80;99.90
13375;DHT22;6756;51.354;15.754;2023-10-09T13:15:45;11.90;99.90
13375;DHT22;6756;51.354;15.754;2023-10-09T13:19:46;11.90;99.90
13375;DHT22;6756;51.354;15.754;2023-10-09T13:23:47;12.00;99.90
13375;DHT22;6756;51.354;15.754;2023-10-09T13:27:48;12.00;99.90
13375;DHT22;6756;51.354;15.754;2023-10-09T13:31:52;12.00;99.90
13375;DHT22;6756;51.354;15.754;2023-10-09T13:35:58;11.90;99.90
13375;DHT22;6756;51.354;15.754;2023-10-09T13:39:59;11.70;99.90
13375;DHT22;6756;51.354;15.754;2023-10-09T13:44:09;11.70;99.90
13375;DHT22;6756;51.354;15.754;2023-10-09T13:48:11;11.60;99.90
13375;DHT22;6756;51.354;15.754;2023-10-09T13:52:13;11.70;99.90
13375;DHT22;6756;51.354;15.754;2023-10-09T13:56:19;11.90;99.90
13375;DHT22;6756;51.354;15.754;2023-10-09T14:00:20;11.90;99.90
13375;DHT22;6756;51.354;15.754;2023-10-09T14:04:33;11.70;99.90
13375;DHT22;6756;51.354;15.754;2023-10-09T14:08:34;11.80;99.90
13375;DHT22;6756;51.354;15.754;2023-10-09T14:12:43;11.70;99.90
13375;DHT22;6756;51.354;15.754;2023-10-09T14:16:45;11.60;99.90
13375;DHT22;6756;51.354;15.754;2023-10-09T14:20:47;11.40;99.90
13375;DHT22;6756;51.354;15.754;2023-10-09T14:24:48;11.20;99.90
13375;DHT22;6756;51.354;15.754;2023-10-09T14:28:58;11.00;99.90
13375;DHT22;6756;51.354;15.754;2023-10-09T14:32:59;10.80;99.90
13375;DHT22;6756;51.354;15.754;2023-10-09T14:37:02;10.70;99.90
13375;DHT22;6756;51.354;15.754;2023-10-09T14:41:05;10.70;99.90
13375;DHT22;6756;51.354;15.754;2023-10-09T14:45:08;10.70;99.90
13375;DHT22;6756;51.354;15.754;2023-10-09T14:49:10;10.60;99.90
13375;DHT22;6756;51.354;15.754;2023-10-09T14:53:15;10.40;99.90
13375;DHT22;6756;51.354;15.754;2023-10-09T14:57:16;10.30;99.90
13375;DHT22;6756;51.354;15.754;2023-10-09T15:01:17;10.20;1.00
13375;DHT22;6756;51.354;15.754;2023-10-09T15:05:20;10.10;37.90
13375;DHT22;6756;51.354;15.754;2023-10-09T15:09:23;10.20;33.00
13375;DHT22;6756;51.354;15.754;2023-10-09T15:13:28;10.30;1.00
13375;DHT22;6756;51.354;15.754;2023-10-09T15:17:31;10.40;1.00
13375;DHT22;6756;51.354;15.754;2023-10-09T15:21:32;10.40;1.00
13375;DHT22;6756;51.354;15.754;2023-10-09T15:25:33;10.50;1.00
13375;DHT22;6756;51.354;15.754;2023-10-09T15:29:34;10.50;1.00
13375;DHT22;6756;51.354;15.754;2023-10-09T15:33:38;10.50;1.00
13375;DHT22;6756;51.354;15.754;2023-10-09T15:37:42;10.40;1.00
13375;DHT22;6756;51.354;15.754;2023-10-09T15:41:43;10.40;1.00
13375;DHT22;6756;51.354;15.754;2023-10-09T15:45:44;10.40;8.50
13375;DHT22;6756;51.354;15.754;2023-10-09T15:49:49;10.40;69.40
13375;DHT22;6756;51.354;15.754;2023-10-09T15:53:59;10.40;99.90
13375;DHT22;6756;51.354;15.754;2023-10-09T15:58:01;10.30;99.90
13375;DHT22;6756;51.354;15.754;2023-10-09T16:02:02;10.30;99.90
13375;DHT22;6756;51.354;15.754;2023-10-09T16:06:04;10.20;99.90
13375;DHT22;6756;51.354;15.754;2023-10-09T16:10:06;10.10;99.90
13375;DHT22;6756;51.354;15.754;2023-10-09T16:14:10;10.00;1.00
13375;DHT22;6756;51.354;15.754;2023-10-09T16:18:11;10.00;94.50
13375;DHT22;6756;51.354;15.754;2023-10-09T16:22:13;9.90;83.20
13375;DHT22;6756;51.354;15.754;2023-10-09T16:26:15;9.90;99.90
13375;DHT22;6756;51.354;15.754;2023-10-09T16:30:18;9.80;99.90
13375;DHT22;6756;51.354;15.754;2023-10-09T16:34:21;9.80;99.90
13375;DHT22;6756;51.354;15.754;2023-10-09T16:38:26;9.80;99.90
13375;DHT22;6756;51.354;15.754;2023-10-09T16:42:27;9.80;99.90
13375;DHT22;6756;51.354;15.754;2023-10-09T16:46:28;9.80;99.90
13375;DHT22;6756;51.354;15.754;2023-10-09T16:50:29;9.80;99.90
13375;DHT22;6756;51.354;15.754;2023-10-09T16:54:30;9.80;99.90
13375;DHT22;6756;51.354;15.754;2023-10-09T16:58:31;9.80;99.90
13375;DHT22;6756;51.354;15.754;2023-10-09T17:02:32;9.70;99.90
13375;DHT22;6756;51.354;15.754;2023-10-09T17:06:38;9.70;99.90
13375;DHT22;6756;51.354;15.754;2023-10-09T17:10:42;9.70;1.00
13375;DHT22;6756;51.354;15.754;2023-10-09T17:14:45;9.70;1.00
13375;DHT22;6756;51.354;15.754;2023-10-09T17:18:48;9.70;59.00
13375;DHT22;6756;51.354;15.754;2023-10-09T17:22:48;9.70;91.50
13375;DHT22;6756;51.354;15.754;2023-10-09T17:26:50;9.70;99.90
13375;DHT22;6756;51.354;15.754;2023-10-09T17:31:00;9.60;1.00
13375;DHT22;6756;51.354;15.754;2023-10-09T17:35:02;9.60;99.90
13375;DHT22;6756;51.354;15.754;2023-10-09T17:39:03;9.60;99.90
13375;DHT22;6756;51.354;15.754;2023-10-09T17:43:07;9.60;1.00
13375;DHT22;6756;51.354;15.754;2023-10-09T17:47:07;9.60;1.00
13375;DHT22;6756;51.354;15.754;2023-10-09T17:51:08;9.60;1.00
13375;DHT22;6756;51.354;15.754;2023-10-09T17:55:09;9.60;1.00
13375;DHT22;6756;51.354;15.754;2023-10-09T17:59:13;9.60;99.90
13375;DHT22;6756;51.354;15.754;2023-10-09T18:03:15;9.50;99.90
13375;DHT22;6756;51.354;15.754;2023-10-09T18:07:16;9.50;1.00
13375;DHT22;6756;51.354;15.754;2023-10-09T18:11:19;9.50;1.00
13375;DHT22;6756;51.354;15.754;2023-10-09T18:15:20;9.50;99.90
13375;DHT22;6756;51.354;15.754;2023-10-09T18:19:21;9.50;99.90
13375;DHT22;6756;51.354;15.754;2023-10-09T18:23:21;9.50;1.00
13375;DHT22;6756;51.354;15.754;2023-10-09T18:27:28;9.50;99.90
13375;DHT22;6756;51.354;15.754;2023-10-09T18:31:29;9.40;18.70
13375;DHT22;6756;51.354;15.754;2023-10-09T18:35:30;9.40;82.20
13375;DHT22;6756;51.354;15.754;2023-10-09T18:39:31;9.40;53.60
13375;DHT22;6756;51.354;15.754;2023-10-09T18:43:32;9.40;1.00
13375;DHT22;6756;51.354;15.754;2023-10-09T18:47:36;9.30;62.10
13375;DHT22;6756;51.354;15.754;2023-10-09T18:51:40;9.30;99.90
13375;DHT22;6756;51.354;15.754;2023-10-09T18:55:42;9.30;1.00
13375;DHT22;6756;51.354;15.754;2023-10-09T18:59:42;9.30;1.00
13375;DHT22;6756;51.354;15.754;2023-10-09T19:03:43;9.20;99.90
13375;DHT22;6756;51.354;15.754;2023-10-09T19:07:48;9.30;99.90
13375;DHT22;6756;51.354;15.754;2023-10-09T19:11:50;9.30;99.90
13375;DHT22;6756;51.354;15.754;2023-10-09T19:15:51;9.30;99.90
13375;DHT22;6756;51.354;15.754;2023-10-09T19:19:52;9.20;99.90
13375;DHT22;6756;51.354;15.754;2023-10-09T19:23:53;9.20;1.00
13375;DHT22;6756;51.354;15.754;2023-10-09T19:27:56;9.20;99.90
13375;DHT22;6756;51.354;15.754;2023-10-09T19:31:57;9.20;99.90
13375;DHT22;6756;51.354;15.754;2023-10-09T19:36:02;9.20;1.00
13375;DHT22;6756;51.354;15.754;2023-10-09T19:40:06;9.20;1.00
13375;DHT22;6756;51.354;15.754;2023-10-09T19:44:11;9.20;1.00
13375;DHT22;6756;51.354;15.754;2023-10-09T19:48:12;9.20;1.00
13375;DHT22;6756;51.354;15.754;2023-10-09T19:52:14;9.20;99.90
13375;DHT22;6756;51.354;15.754;2023-10-09T19:56:15;9.20;99.90
13375;DHT22;6756;51.354;15.754;2023-10-09T20:00:18;9.20;99.90
13375;DHT22;6756;51.354;15.754;2023-10-09T20:04:22;9.20;99.90
13375;DHT22;6756;51.354;15.754;2023-10-09T20:08:25;9.20;99.90
13375;DHT22;6756;51.354;15.754;2023-10-09T20:12:26;9.20;1.00
13375;DHT22;6756;51.354;15.754;2023-10-09T20:16:27;9.20;99.90
13375;DHT22;6756;51.354;15.754;2023-10-09T20:20:28;9.10;99.90
13375;DHT22;6756;51.354;15.754;2023-10-09T20:24:29;9.10;1.00
13375;DHT22;6756;51.354;15.754;2023-10-09T20:28:31;9.10;99.90
13375;DHT22;6756;51.354;15.754;2023-10-09T20:32:32;9.00;99.90
13375;DHT22;6756;51.354;15.754;2023-10-09T20:36:32;9.00;99.90
13375;DHT22;6756;51.354;15.754;2023-10-09T20:40:41;8.90;99.90
13375;DHT22;6756;51.354;15.754;2023-10-09T20:44:44;8.90;99.90
13375;DHT22;6756;51.354;15.754;2023-10-09T20:48:45;8.90;99.90
13375;DHT22;6756;51.354;15.754;2023-10-09T20:52:46;8.90;99.90
13375;DHT22;6756;51.354;15.754;2023-10-09T20:56:47;8.80;99.90
13375;DHT22;6756;51.354;15.754;2023-10-09T21:00:51;8.80;99.90
13375;DHT22;6756;51.354;15.754;2023-10-09T21:04:56;8.80;99.90
13375;DHT22;6756;51.354;15.754;2023-10-09T21:08:58;8.80;99.90
13375;DHT22;6756;51.354;15.754;2023-10-09T21:12:59;8.80;99.90
13375;DHT22;6756;51.354;15.754;2023-10-09T21:17:01;8.70;99.90
13375;DHT22;6756;51.354;15.754;2023-10-09T21:21:03;8.70;99.90
13375;DHT22;6756;51.354;15.754;2023-10-09T21:25:10;8.70;99.90
13375;DHT22;6756;51.354;15.754;2023-10-09T21:29:11;8.70;99.90
13375;DHT22;6756;51.354;15.754;2023-10-09T21:33:12;8.70;99.90
13375;DHT22;6756;51.354;15.754;2023-10-09T21:37:13;8.70;99.90
13375;DHT22;6756;51.354;15.754;2023-10-09T21:41:15;8.70;99.90
13375;DHT22;6756;51.354;15.754;2023-10-09T21:45:22;8.70;99.90
13375;DHT22;6756;51.354;15.754;2023-10-09T21:49:23;8.70;99.90
13375;DHT22;6756;51.354;15.754;2023-10-09T21:53:26;8.70;99.90
13375;DHT22;6756;51.354;15.754;2023-10-09T21:57:29;8.70;99.90
13375;DHT22;6756;51.354;15.754;2023-10-09T22:01:29;8.70;99.90
13375;DHT22;6756;51.354;15.754;2023-10-09T22:05:32;8.70;99.90
13375;DHT22;6756;51.354;15.754;2023-10-09T22:09:33;8.80;99.90
13375;DHT22;6756;51.354;15.754;2023-10-09T22:13:34;8.80;99.90
13375;DHT22;6756;51.354;15.754;2023-10-09T22:17:35;8.80;99.90
13375;DHT22;6756;51.354;15.754;2023-10-09T22:21:38;8.80;99.90
13375;DHT22;6756;51.354;15.754;2023-10-09T22:25:39;8.80;99.90
13375;DHT22;6756;51.354;15.754;2023-10-09T22:29:41;8.80;99.90
13375;DHT22;6756;51.354;15.754;2023-10-09T22:33:42;8.80;99.90
13375;DHT22;6756;51.354;15.754;2023-10-09T22:37:49;8.80;99.90
13375;DHT22;6756;51.354;15.754;2023-10-09T22:41:50;8.70;99.90
13375;DHT22;6756;51.354;15.754;2023-10-09T22:45:54;8.70;99.90
13375;DHT22;6756;51.354;15.754;2023-10-09T22:49:58;8.70;99.90
13375;DHT22;6756;51.354;15.754;2023-10-09T22:54:18;8.70;99.90
13375;DHT22;6756;51.354;15.754;2023-10-09T22:58:35;8.70;99.90
13375;DHT22;6756;51.354;15.754;2023-10-09T23:02:50;8.70;99.90
13375;DHT22;6756;51.354;15.754;2023-10-09T23:07:04;8.70;99.90
13375;DHT22;6756;51.354;15.754;2023-10-09T23:11:15;8.70;99.90
13375;DHT22;6756;51.354;15.754;2023-10-09T23:15:28;8.70;99.90
13375;DHT22;6756;51.354;15.754;2023-10-09T23:19:35;8.70;99.90
13375;DHT22;6756;51.354;15.754;2023-10-09T23:23:38;8.70;99.90
13375;DHT22;6756;51.354;15.754;2023-10-09T23:27:41;8.70;99.90
13375;DHT22;6756;51.354;15.754;2023-10-09T23:31:44;8.70;99.90
13375;DHT22;6756;51.354;15.754;2023-10-09T23:35:57;8.70;99.90
13375;DHT22;6756;51.354;15.754;2023-10-09T23:40:07;8.70;99.90
13375;DHT22;6756;51.354;15.754;2023-10-09T23:44:18;8.70;99.90
13375;DHT22;6756;51.354;15.754;2023-10-09T23:48:26;8.70;99.90
13375;DHT22;6756;51.354;15.754;2023-10-09T23:52:27;8.70;99.90
13375;DHT22;6756;51.354;15.754;2023-10-09T23:56:32;8.70;99.90
